KPPF/PPF METAR and TAF weather

Enter ICAO airport designator
Station Type Date Time Source
KPPF METAR 2019/06/17 06:52 UTC NOAA

KPPF 170652Z AUTO 00000KT 10SM OVC095 20/18 A2990 RMK AO2 RAB07E50 SLP118 P0001 T02000183


Station Type Date Time Source
KPPF Decoded METAR 2019/06/17 06:52 UTC NOAA

PARSONS TRI-CITY AIRPORT, KS, United States (KPPF) 37-20N 95-30W 274M
Jun 17, 2019 - 02:52 AM EDT / 2019.06.17 0652 UTC
Wind: Calm:0
Visibility: 10 mile(s):0
Sky conditions: overcast
Precipitation last hour: 0.01 inches
Temperature: 68.0 F (20.0 C)
Dew Point: 64.9 F (18.3 C)
Relative Humidity: 89%
Pressure (altimeter): 29.9 in. Hg (1012 hPa)
ob: KPPF 170652Z AUTO 00000KT 10SM OVC095 20/18 A2990 RMK AO2 RAB07E50 SLP118 P0001 T02000183
cycle: 7

Station Type Date Time Source
KPPF TAF UTC NOAA

Error!

Example: see airport list